Palm Springs North, Florida
Current Conditions -  °F | °C
As of 1:53 AM on Wednesday 22 Oct 2014 (Local Time) from KOPF Reporting Station
Scattered Clouds Scattered Clouds  
Wind Chill: 24°   Ceiling: Unl
Heat Index: 24°   Visibility: 10mi
Dew Point: 22°   Wind: 0mph
Humidity: 87%   Direction: NA
Pressure: 29.92"   Gusts: NA
Location:  25.9357°N, 80.3817°W
Report Text: KOPF 220553Z AUTO 00000KT 10SM SCT110 24/22 A2992 RMK AO2 SLP134 T02390217 10244 20233 58012
Loading
Personal Weather Stations






























Interactive Weather Map
Tropical Storm Tracking
New forecast layout! Learn more

10-Day Weather Forecast

Advertisements
Track Severe Weather on mobile